Time;durP1;ratioP1;P1;durP2;ratioP2;P2;SDS_P1;SDS_P2;PMS_P1;PMS_P2;Temp;Humidity;BMP_temperature;BMP_pressure;BME280_temperature;BME280_humidity;BME280_pressure;Samples;Min_cycle;Max_cycle;Signal;HPM_P1;HPM_P2
2022/11/23 00:00:45;;;;;;;2.13;1.92;;;;;;;;;;5034548;28;20253;-87
2022/11/23 00:03:15;;;;;;;1.60;1.50;;;;;;;;;;5033610;28;20312;-89
2022/11/23 00:05:43;;;;;;;1.70;1.60;;;;;;;;;;5034298;28;20225;-88
2022/11/23 00:08:10;;;;;;;3.63;2.05;;;;;;;;;;5036584;28;20341;-88
2022/11/23 00:10:38;;;;;;;3.85;2.03;;;;;;;;;;5037739;28;20278;-89
2022/11/23 00:13:05;;;;;;;1.77;1.67;;;;;;;;;;5037336;28;20298;-89
2022/11/23 00:15:34;;;;;;;2.50;2.30;;;;;;;;;;5037537;28;20212;-89
2022/11/23 00:18:03;;;;;;;1.88;1.48;;;;;;;;;;5036875;28;20203;-89
2022/11/23 00:20:30;;;;;;;2.47;1.95;;;;;;;;;;5036809;28;20224;-90
2022/11/23 00:22:58;;;;;;;1.52;1.42;;;;;;;;;;5037234;28;20281;-89
2022/11/23 00:25:26;;;;;;;3.13;1.88;;;;;;;;;;5037209;28;20313;-89
2022/11/23 00:27:53;;;;;;;2.28;1.40;;;;;;;;;;5036421;28;20747;-89
2022/11/23 00:30:21;;;;;;;1.92;1.73;;;;;;;;;;5037136;28;20809;-88
2022/11/23 00:32:48;;;;;;;1.67;1.45;;;;;;;;;;5037089;28;20205;-89
2022/11/23 00:35:17;;;;;;;2.42;1.90;;;;;;;;;;5036859;28;20777;-89
2022/11/23 00:37:45;;;;;;;1.40;1.30;;;;;;;;;;5037501;28;20285;-89
2022/11/23 00:40:13;;;;;;;2.88;2.00;;;;;;;;;;5036814;28;20233;-89
2022/11/23 00:42:41;;;;;;;3.17;1.42;;;;;;;;;;5037098;28;20296;-89
2022/11/23 00:45:10;;;;;;;1.88;1.70;;;;;;;;;;5036996;28;20747;-89
2022/11/23 00:47:38;;;;;;;3.15;1.95;;;;;;;;;;5037550;28;20290;-88
2022/11/23 00:50:06;;;;;;;2.17;1.50;;;;;;;;;;5036987;28;20286;-88
2022/11/23 00:52:35;;;;;;;1.73;1.40;;;;;;;;;;5047230;28;20234;-88
2022/11/23 00:55:03;;;;;;;2.58;1.70;;;;;;;;;;5043306;28;20770;-89
2022/11/23 00:57:30;;;;;;;4.72;1.77;;;;;;;;;;5037481;28;20289;-89
2022/11/23 00:59:58;;;;;;;2.72;1.65;;;;;;;;;;5036919;28;20263;-88
2022/11/23 01:02:25;;;;;;;2.95;1.60;;;;;;;;;;5036239;28;20226;-89
2022/11/23 01:04:53;;;;;;;1.52;1.42;;;;;;;;;;5036420;28;20253;-89
2022/11/23 01:07:22;;;;;;;1.67;1.58;;;;;;;;;;5036522;28;20233;-89
2022/11/23 01:09:51;;;;;;;1.52;1.42;;;;;;;;;;5036324;28;20285;-89
2022/11/23 01:12:18;;;;;;;2.75;2.30;;;;;;;;;;5036503;28;20206;-88
2022/11/23 01:14:46;;;;;;;2.78;2.20;;;;;;;;;;5036143;28;20314;-88
2022/11/23 01:17:13;;;;;;;2.95;1.48;;;;;;;;;;5035567;28;20678;-88
2022/11/23 01:19:41;;;;;;;4.93;1.70;;;;;;;;;;5035636;28;20199;-89
2022/11/23 01:22:08;;;;;;;2.50;1.88;;;;;;;;;;5036760;28;20245;-88
2022/11/23 01:24:36;;;;;;;3.40;1.65;;;;;;;;;;5036386;28;20626;-88
2022/11/23 01:27:05;;;;;;;4.47;2.72;;;;;;;;;;5036189;28;20416;-88
2022/11/23 01:29:32;;;;;;;3.00;1.73;;;;;;;;;;5036192;28;20289;-89
2022/11/23 01:32:00;;;;;;;3.72;2.10;;;;;;;;;;5036238;28;20290;-89
2022/11/23 01:34:28;;;;;;;2.90;1.85;;;;;;;;;;5035705;28;20222;-89
2022/11/23 01:36:55;;;;;;;4.30;2.08;;;;;;;;;;5035435;28;20198;-89
2022/11/23 01:39:23;;;;;;;4.35;1.83;;;;;;;;;;5035397;28;20284;-89
2022/11/23 01:41:50;;;;;;;2.25;2.05;;;;;;;;;;5035838;28;20432;-88
2022/11/23 01:44:30;;;;;;;2.33;1.40;;;;;;;;;;5035867;28;20228;-88
2022/11/23 01:47:00;;;;;;;2.58;1.88;;;;;;;;;;5031140;28;20205;-89
2022/11/23 01:49:30;;;;;;;2.25;1.92;;;;;;;;;;5016109;28;20686;-88
2022/11/23 01:52:02;;;;;;;1.85;1.65;;;;;;;;;;5015994;28;20836;-88
2022/11/23 01:54:34;;;;;;;3.13;2.25;;;;;;;;;;5016290;28;20219;-89
2022/11/23 01:57:07;;;;;;;3.53;1.90;;;;;;;;;;5016248;28;20294;-89
2022/11/23 01:59:37;;;;;;;4.90;1.90;;;;;;;;;;5015313;28;20623;-89
2022/11/23 02:02:05;;;;;;;3.17;2.38;;;;;;;;;;5015855;28;20710;-88
2022/11/23 02:04:36;;;;;;;2.70;2.33;;;;;;;;;;5015551;28;20222;-88
2022/11/23 02:07:04;;;;;;;4.50;2.58;;;;;;;;;;5015607;28;20273;-88
2022/11/23 02:09:33;;;;;;;2.03;1.70;;;;;;;;;;5015866;28;20663;-89
2022/11/23 02:12:00;;;;;;;1.85;1.70;;;;;;;;;;5031505;28;20203;-89
2022/11/23 02:14:28;;;;;;;2.05;1.60;;;;;;;;;;5034764;28;20604;-89
2022/11/23 02:16:59;;;;;;;1.80;1.60;;;;;;;;;;5034912;28;20212;-90
2022/11/23 02:19:34;;;;;;;3.83;1.63;;;;;;;;;;5034962;28;20229;-89
2022/11/23 02:22:01;;;;;;;2.72;2.53;;;;;;;;;;5034763;28;20232;-88
2022/11/23 02:24:34;;;;;;;3.75;1.42;;;;;;;;;;5035093;28;20214;-89
2022/11/23 02:27:03;;;;;;;3.85;1.80;;;;;;;;;;5035958;28;20297;-89
2022/11/23 02:29:32;;;;;;;2.13;1.77;;;;;;;;;;5035635;28;20202;-89
2022/11/23 02:31:59;;;;;;;1.90;1.27;;;;;;;;;;5035078;28;20202;-88
2022/11/23 02:34:27;;;;;;;1.63;1.52;;;;;;;;;;5034652;28;20301;-88
2022/11/23 02:36:57;;;;;;;2.78;1.48;;;;;;;;;;5035089;28;20285;-89
2022/11/23 02:39:30;;;;;;;1.75;1.40;;;;;;;;;;5034601;28;20289;-88
2022/11/23 02:42:23;;;;;;;2.50;1.25;;;;;;;;;;5035131;28;20674;-89
2022/11/23 02:44:59;;;;;;;3.42;1.70;;;;;;;;;;5035235;28;20249;-89
2022/11/23 02:47:26;;;;;;;3.20;1.70;;;;;;;;;;5035239;28;20274;-88
2022/11/23 02:50:21;;;;;;;2.45;1.70;;;;;;;;;;5034334;28;20226;-88
2022/11/23 02:52:48;;;;;;;4.20;1.70;;;;;;;;;;5034488;28;20377;-89
2022/11/23 02:55:16;;;;;;;3.72;2.08;;;;;;;;;;5035559;28;20250;-89
2022/11/23 02:57:45;;;;;;;1.27;1.13;;;;;;;;;;5036250;28;20222;-89
2022/11/23 03:00:14;;;;;;;2.33;1.90;;;;;;;;;;5034638;28;20217;-89
2022/11/23 03:02:41;;;;;;;3.17;1.63;;;;;;;;;;5034692;28;20309;-88
2022/11/23 03:05:09;;;;;;;3.67;1.50;;;;;;;;;;5034685;28;20607;-89
2022/11/23 03:07:37;;;;;;;1.75;1.63;;;;;;;;;;5034813;28;20245;-89
2022/11/23 03:10:06;;;;;;;2.08;1.85;;;;;;;;;;5034828;28;20293;-88
2022/11/23 03:12:33;;;;;;;2.22;2.03;;;;;;;;;;5034377;28;20293;-89
2022/11/23 03:15:02;;;;;;;2.28;1.30;;;;;;;;;;5034455;28;20309;-89
2022/11/23 03:17:31;;;;;;;3.88;1.70;;;;;;;;;;5034115;28;20203;-88
2022/11/23 03:19:58;;;;;;;2.85;1.88;;;;;;;;;;5033837;28;20202;-89
2022/11/23 03:22:26;;;;;;;1.15;1.08;;;;;;;;;;5033675;28;20218;-89
2022/11/23 03:24:53;;;;;;;2.17;1.52;;;;;;;;;;5033854;28;20297;-89
2022/11/23 03:27:21;;;;;;;2.70;1.98;;;;;;;;;;5034175;28;20226;-89
2022/11/23 03:29:48;;;;;;;1.98;1.50;;;;;;;;;;5033534;28;20201;-89
2022/11/23 03:32:36;;;;;;;1.88;1.30;;;;;;;;;;5034214;28;20201;-89
2022/11/23 03:35:04;;;;;;;1.30;1.08;;;;;;;;;;5034282;28;20305;-89
2022/11/23 03:37:31;;;;;;;1.15;1.15;;;;;;;;;;5033933;28;20209;-89
2022/11/23 03:39:59;;;;;;;2.17;1.40;;;;;;;;;;5033773;28;20624;-89
2022/11/23 03:42:26;;;;;;;2.92;1.70;;;;;;;;;;5034007;28;20230;-89
2022/11/23 03:44:54;;;;;;;3.38;1.70;;;;;;;;;;5034728;28;20308;-89
2022/11/23 03:47:22;;;;;;;2.65;1.60;;;;;;;;;;5034196;28;20286;-89
2022/11/23 03:49:51;;;;;;;3.78;2.20;;;;;;;;;;5033251;28;20610;-90
2022/11/23 03:52:18;;;;;;;3.13;1.30;;;;;;;;;;5033463;28;20743;-89
2022/11/23 03:54:46;;;;;;;4.10;1.98;;;;;;;;;;5033334;28;20309;-89
2022/11/23 03:57:14;;;;;;;5.72;2.10;;;;;;;;;;5033532;28;20232;-90
2022/11/23 03:59:41;;;;;;;2.83;1.98;;;;;;;;;;5033546;28;20205;-89
2022/11/23 04:02:09;;;;;;;3.22;1.98;;;;;;;;;;5034056;28;20209;-89
2022/11/23 04:04:37;;;;;;;3.90;2.03;;;;;;;;;;5033507;28;20226;-89
2022/11/23 04:07:06;;;;;;;2.17;1.40;;;;;;;;;;5033567;28;20198;-88
2022/11/23 04:09:33;;;;;;;1.30;1.20;;;;;;;;;;5033429;28;20226;-89
2022/11/23 04:12:01;;;;;;;2.13;1.10;;;;;;;;;;5033178;28;20285;-90
2022/11/23 04:14:28;;;;;;;1.50;1.40;;;;;;;;;;5033525;28;20253;-88
2022/11/23 04:16:56;;;;;;;2.03;1.63;;;;;;;;;;5033389;28;20645;-89
2022/11/23 04:19:23;;;;;;;3.28;1.67;;;;;;;;;;5032687;28;20218;-89
2022/11/23 04:21:51;;;;;;;4.53;2.35;;;;;;;;;;5033974;28;20229;-91
2022/11/23 04:24:20;;;;;;;2.78;1.70;;;;;;;;;;5032824;28;20702;-89
2022/11/23 04:26:48;;;;;;;5.32;1.95;;;;;;;;;;5033101;28;20206;-89
2022/11/23 04:29:16;;;;;;;2.78;1.95;;;;;;;;;;5032899;28;20206;-90
2022/11/23 04:31:43;;;;;;;2.58;2.33;;;;;;;;;;5032767;28;20202;-89
2022/11/23 04:34:11;;;;;;;3.33;2.15;;;;;;;;;;5032913;28;20660;-89
2022/11/23 04:36:38;;;;;;;4.75;1.65;;;;;;;;;;5033047;28;20341;-89
2022/11/23 04:39:06;;;;;;;1.90;1.50;;;;;;;;;;5032683;28;20615;-90
2022/11/23 04:41:35;;;;;;;5.28;2.40;;;;;;;;;;5033105;28;20213;-89
2022/11/23 04:44:03;;;;;;;2.55;1.50;;;;;;;;;;5032250;28;20309;-90
2022/11/23 04:46:30;;;;;;;5.50;2.33;;;;;;;;;;5033193;28;20198;-90
2022/11/23 04:48:58;;;;;;;1.70;1.40;;;;;;;;;;5033074;28;20289;-89
2022/11/23 04:51:25;;;;;;;3.50;1.98;;;;;;;;;;5033216;28;20202;-89
2022/11/23 04:53:53;;;;;;;2.22;1.60;;;;;;;;;;5033284;28;20305;-89
2022/11/23 04:56:21;;;;;;;3.22;1.70;;;;;;;;;;5036545;28;20289;-89
2022/11/23 04:58:49;;;;;;;3.30;2.03;;;;;;;;;;5036349;28;20205;-89
2022/11/23 05:01:17;;;;;;;5.13;2.00;;;;;;;;;;5036204;28;20210;-87
2022/11/23 05:03:44;;;;;;;2.40;1.58;;;;;;;;;;5036457;28;20230;-90
2022/11/23 05:06:12;;;;;;;2.85;1.95;;;;;;;;;;5037460;28;20262;-90
2022/11/23 05:08:40;;;;;;;1.92;1.63;;;;;;;;;;5047333;28;20205;-90
2022/11/23 05:11:07;;;;;;;2.35;1.55;;;;;;;;;;5041386;28;20229;-89
2022/11/23 05:13:35;;;;;;;2.72;2.10;;;;;;;;;;5036843;28;20313;-89
2022/11/23 05:16:04;;;;;;;2.63;1.63;;;;;;;;;;5035988;28;20666;-90
2022/11/23 05:18:32;;;;;;;2.42;1.73;;;;;;;;;;5036193;28;20281;-89
2022/11/23 05:20:59;;;;;;;2.47;1.98;;;;;;;;;;5036063;28;20202;-89
2022/11/23 05:23:27;;;;;;;4.25;2.00;;;;;;;;;;5036235;28;20305;-89
2022/11/23 05:25:55;;;;;;;3.05;1.90;;;;;;;;;;5036569;28;20198;-89
2022/11/23 05:28:23;;;;;;;2.83;1.90;;;;;;;;;;5036467;28;20289;-89
2022/11/23 05:30:51;;;;;;;2.78;1.67;;;;;;;;;;5035919;28;20198;-89
2022/11/23 05:33:30;;;;;;;3.75;1.80;;;;;;;;;;5035378;28;20635;-89
2022/11/23 05:35:58;;;;;;;3.30;1.73;;;;;;;;;;5035580;28;20196;-89
2022/11/23 05:38:26;;;;;;;2.60;1.90;;;;;;;;;;5035748;28;20619;-88
2022/11/23 05:41:03;;;;;;;1.80;1.55;;;;;;;;;;5035472;28;20194;-91
2022/11/23 05:43:30;;;;;;;2.95;2.65;;;;;;;;;;5035710;28;20759;-91
2022/11/23 05:46:00;;;;;;;2.50;2.30;;;;;;;;;;5036138;28;20288;-92
2022/11/23 05:48:31;;;;;;;4.65;2.05;;;;;;;;;;5037944;28;20206;-91
2022/11/23 05:50:59;;;;;;;2.83;2.13;;;;;;;;;;5036704;28;20289;-91
2022/11/23 05:53:27;;;;;;;3.35;1.90;;;;;;;;;;5036431;28;20214;-92
2022/11/23 05:55:58;;;;;;;3.22;2.35;;;;;;;;;;5035659;28;20659;-91
2022/11/23 05:58:26;;;;;;;2.47;2.00;;;;;;;;;;5037279;28;20245;-92
2022/11/23 06:00:56;;;;;;;2.97;1.70;;;;;;;;;;5037053;28;20647;-91
2022/11/23 06:03:24;;;;;;;4.38;2.28;;;;;;;;;;5037759;28;20226;-91
2022/11/23 06:05:53;;;;;;;2.63;2.08;;;;;;;;;;5036959;28;20293;-92
2022/11/23 06:08:21;;;;;;;3.15;1.90;;;;;;;;;;5037004;28;20289;-91
2022/11/23 06:10:48;;;;;;;2.15;1.90;;;;;;;;;;5036031;28;20289;-91
2022/11/23 06:13:16;;;;;;;3.35;1.95;;;;;;;;;;5018750;28;20290;-91
2022/11/23 06:15:51;;;;;;;4.20;2.20;;;;;;;;;;5017293;28;20212;-92
2022/11/23 06:18:19;;;;;;;2.38;1.73;;;;;;;;;;5016657;28;20262;-92
2022/11/23 06:20:46;;;;;;;2.75;1.98;;;;;;;;;;5016090;28;20742;-91
2022/11/23 06:23:16;;;;;;;2.17;1.85;;;;;;;;;;5016741;28;20230;-90
2022/11/23 06:25:43;;;;;;;2.25;1.77;;;;;;;;;;5016992;28;20265;-91
2022/11/23 06:28:11;;;;;;;3.70;1.77;;;;;;;;;;5015091;28;20291;-91
2022/11/23 06:30:39;;;;;;;1.85;1.63;;;;;;;;;;5015820;28;20210;-91
2022/11/23 06:33:06;;;;;;;4.30;1.90;;;;;;;;;;5015835;28;20741;-92
2022/11/23 06:35:34;;;;;;;1.90;1.80;;;;;;;;;;5016276;28;20261;-91
2022/11/23 06:38:02;;;;;;;1.83;1.58;;;;;;;;;;5015486;28;20289;-91
2022/11/23 06:40:31;;;;;;;1.75;1.65;;;;;;;;;;5016199;28;20226;-91
2022/11/23 06:42:59;;;;;;;6.43;2.50;;;;;;;;;;5034668;28;20221;-90
2022/11/23 06:45:27;;;;;;;2.92;2.30;;;;;;;;;;5035079;28;20218;-90
2022/11/23 06:47:56;;;;;;;3.45;1.90;;;;;;;;;;5035127;28;20194;-90
2022/11/23 06:50:23;;;;;;;2.88;2.10;;;;;;;;;;5035344;28;20210;-90
2022/11/23 06:52:57;;;;;;;3.33;1.90;;;;;;;;;;5038244;28;20221;-90
2022/11/23 06:55:25;;;;;;;3.03;1.98;;;;;;;;;;5036996;28;20221;-92
2022/11/23 06:57:56;;;;;;;3.38;2.03;;;;;;;;;;5038212;28;20225;-93
2022/11/23 07:00:24;;;;;;;2.50;2.10;;;;;;;;;;5037556;28;20674;-91
2022/11/23 07:02:56;;;;;;;3.78;2.50;;;;;;;;;;5038988;28;20629;-92
2022/11/23 07:05:24;;;;;;;3.85;2.10;;;;;;;;;;5038973;28;20245;-92
2022/11/23 07:07:52;;;;;;;2.97;1.92;;;;;;;;;;5038280;28;20232;-92
2022/11/23 07:10:20;;;;;;;3.50;2.05;;;;;;;;;;5039754;28;20198;-91
2022/11/23 07:12:48;;;;;;;5.35;2.03;;;;;;;;;;5038530;28;20637;-91
2022/11/23 07:15:29;;;;;;;5.72;2.30;;;;;;;;;;5038788;28;20242;-91
2022/11/23 07:17:56;;;;;;;1.77;1.50;;;;;;;;;;5037868;28;20202;-91
2022/11/23 07:20:24;;;;;;;3.67;1.92;;;;;;;;;;5037333;28;20229;-92
2022/11/23 07:23:01;;;;;;;5.47;2.72;;;;;;;;;;5038902;28;20297;-93
2022/11/23 07:25:29;;;;;;;3.90;1.85;;;;;;;;;;5020443;28;20278;-91
2022/11/23 07:28:00;;;;;;;4.03;1.73;;;;;;;;;;5018368;28;20207;-91
2022/11/23 07:30:30;;;;;;;3.42;3.03;;;;;;;;;;5017561;28;20281;-91
2022/11/23 07:33:00;;;;;;;2.95;2.10;;;;;;;;;;5019433;28;20249;-93
2022/11/23 07:35:28;;;;;;;4.10;2.00;;;;;;;;;;5018868;28;20202;-91
2022/11/23 07:37:56;;;;;;;3.58;2.38;;;;;;;;;;5023902;28;20227;-92
2022/11/23 07:40:25;;;;;;;5.10;2.03;;;;;;;;;;5022760;28;20210;-92
2022/11/23 07:42:53;;;;;;;2.55;2.13;;;;;;;;;;5038441;28;20218;-93
2022/11/23 07:45:21;;;;;;;6.63;2.42;;;;;;;;;;5022898;28;20230;-93
2022/11/23 07:47:59;;;;;;;2.67;1.70;;;;;;;;;;5021227;28;20210;-93
2022/11/23 07:50:27;;;;;;;2.67;1.92;;;;;;;;;;5030680;28;20217;-92
2022/11/23 07:52:55;;;;;;;3.70;1.70;;;;;;;;;;5038942;28;20207;-93
2022/11/23 07:55:23;;;;;;;2.63;1.67;;;;;;;;;;5039293;28;20198;-93
2022/11/23 07:57:53;;;;;;;4.00;2.33;;;;;;;;;;5040498;28;20226;-93
2022/11/23 08:00:21;;;;;;;5.75;2.55;;;;;;;;;;5041246;28;20289;-90
2022/11/23 08:02:50;;;;;;;3.30;2.40;;;;;;;;;;5042059;28;20241;-90
2022/11/23 08:05:19;;;;;;;4.65;1.77;;;;;;;;;;5040293;28;20244;-93
2022/11/23 08:07:47;;;;;;;3.20;1.70;;;;;;;;;;5040350;28;20206;-93
2022/11/23 08:10:15;;;;;;;2.65;2.00;;;;;;;;;;5040943;28;20214;-94
2022/11/23 08:12:43;;;;;;;1.73;1.60;;;;;;;;;;5041226;28;20214;-94
2022/11/23 08:15:12;;;;;;;3.05;1.48;;;;;;;;;;5040779;28;20226;-93
2022/11/23 08:17:40;;;;;;;2.15;1.77;;;;;;;;;;5040428;28;20583;-93
2022/11/23 08:20:11;;;;;;;2.38;1.63;;;;;;;;;;5040081;28;20213;-93
2022/11/23 08:22:39;;;;;;;3.70;2.03;;;;;;;;;;5038413;28;20202;-93
2022/11/23 08:25:08;;;;;;;3.13;1.77;;;;;;;;;;5037522;28;20313;-92
2022/11/23 08:27:35;;;;;;;2.35;1.63;;;;;;;;;;5039656;28;20230;-94
2022/11/23 08:30:03;;;;;;;4.22;1.67;;;;;;;;;;5043468;28;20232;-92
2022/11/23 08:32:31;;;;;;;3.47;1.88;;;;;;;;;;5041976;28;20498;-93
2022/11/23 08:34:59;;;;;;;3.28;1.95;;;;;;;;;;5041484;28;20240;-91
2022/11/23 08:37:28;;;;;;;3.47;1.63;;;;;;;;;;5040246;28;20289;-92
2022/11/23 08:39:55;;;;;;;6.50;3.28;;;;;;;;;;5039041;28;20618;-91
2022/11/23 08:42:23;;;;;;;3.60;1.98;;;;;;;;;;5036617;28;20203;-91
2022/11/23 08:44:50;;;;;;;3.60;2.05;;;;;;;;;;5039043;28;20302;-92
2022/11/23 08:47:18;;;;;;;3.38;1.60;;;;;;;;;;5039417;28;20262;-91
2022/11/23 08:49:46;;;;;;;3.00;2.42;;;;;;;;;;5040406;28;20647;-93
2022/11/23 08:52:13;;;;;;;1.73;1.55;;;;;;;;;;5038676;28;20269;-93
2022/11/23 08:54:42;;;;;;;5.40;1.88;;;;;;;;;;5039975;28;20646;-90
2022/11/23 08:57:10;;;;;;;3.30;1.70;;;;;;;;;;5037686;28;20286;-90
2022/11/23 08:59:37;;;;;;;2.28;1.80;;;;;;;;;;5038077;28;20237;-92
2022/11/23 09:02:05;;;;;;;2.65;2.28;;;;;;;;;;5037426;28;20206;-92
2022/11/23 09:04:33;;;;;;;2.03;1.80;;;;;;;;;;5038078;28;20232;-91
2022/11/23 09:07:00;;;;;;;2.28;1.80;;;;;;;;;;5038774;28;20222;-90
2022/11/23 09:09:28;;;;;;;3.53;1.77;;;;;;;;;;5038249;28;20281;-93
2022/11/23 09:11:57;;;;;;;2.08;1.52;;;;;;;;;;5040091;28;20294;-92
2022/11/23 09:14:26;;;;;;;5.47;2.05;;;;;;;;;;5044663;28;20238;-92
2022/11/23 09:16:54;;;;;;;4.45;1.92;;;;;;;;;;5044795;28;20202;-92
2022/11/23 09:19:23;;;;;;;4.22;1.80;;;;;;;;;;5040498;28;20254;-92
2022/11/23 09:21:50;;;;;;;2.60;1.63;;;;;;;;;;5038759;28;20297;-91
2022/11/23 09:24:18;;;;;;;2.83;1.85;;;;;;;;;;5038054;28;20249;-92
2022/11/23 09:26:46;;;;;;;1.63;1.40;;;;;;;;;;5037207;28;20321;-93
2022/11/23 09:29:15;;;;;;;2.63;2.05;;;;;;;;;;5038984;28;20623;-93
2022/11/23 09:31:42;;;;;;;5.53;1.90;;;;;;;;;;5039385;28;20294;-93
2022/11/23 09:34:12;;;;;;;2.67;1.58;;;;;;;;;;5038850;28;20754;-92
2022/11/23 09:36:40;;;;;;;4.05;2.13;;;;;;;;;;5038439;28;20206;-92
2022/11/23 09:39:08;;;;;;;4.18;1.77;;;;;;;;;;5037153;28;20233;-90
2022/11/23 09:42:16;;;;;;;2.78;1.83;;;;;;;;;;5038139;28;20392;-90
2022/11/23 09:44:59;;;;;;;3.05;1.80;;;;;;;;;;5022658;28;20236;-91
2022/11/23 09:47:48;;;;;;;4.60;1.63;;;;;;;;;;5037998;28;20218;-91
2022/11/23 09:50:22;;;;;;;3.42;1.80;;;;;;;;;;5039175;28;20264;-91
2022/11/23 09:52:50;;;;;;;2.53;1.52;;;;;;;;;;5038406;28;20221;-91
2022/11/23 10:24:50;;;;;;;4.05;1.70;;;;;;;;;;5161010;22;20235;-86
2022/11/23 10:27:21;;;;;;;3.15;2.00;;;;;;;;;;5074481;28;20220;-84
2022/11/23 10:29:51;;;;;;;2.97;1.90;;;;;;;;;;5075090;28;20759;-85
2022/11/23 10:32:29;;;;;;;4.70;1.77;;;;;;;;;;5074891;28;20201;-86
2022/11/23 10:35:04;;;;;;;3.03;1.75;;;;;;;;;;5075065;28;20690;-84
2022/11/23 10:37:33;;;;;;;4.47;2.20;;;;;;;;;;5074778;28;20188;-86
2022/11/23 10:40:02;;;;;;;2.72;1.98;;;;;;;;;;5074534;28;20228;-86
2022/11/23 10:42:33;;;;;;;4.28;2.00;;;;;;;;;;5074166;28;20229;-84
2022/11/23 10:45:01;;;;;;;4.18;2.13;;;;;;;;;;5074540;28;20288;-86
2022/11/23 10:47:39;;;;;;;5.57;2.42;;;;;;;;;;5075187;28;20258;-87
2022/11/23 10:50:23;;;;;;;1.95;1.65;;;;;;;;;;5074887;28;20304;-86
2022/11/23 10:52:53;;;;;;;3.95;1.92;;;;;;;;;;5073857;28;20283;-85
2022/11/23 10:55:27;;;;;;;1.35;1.25;;;;;;;;;;5055464;28;20566;-86
2022/11/23 10:57:56;;;;;;;2.47;1.70;;;;;;;;;;5055286;28;20717;-85
2022/11/23 11:00:26;;;;;;;4.75;1.90;;;;;;;;;;5055132;28;20664;-85
2022/11/23 11:02:55;;;;;;;4.43;2.20;;;;;;;;;;5055251;28;20204;-86
2022/11/23 11:05:31;;;;;;;3.85;1.90;;;;;;;;;;5054451;28;20288;-85
2022/11/23 11:08:00;;;;;;;3.80;2.10;;;;;;;;;;5054473;28;20205;-86
2022/11/23 11:10:41;;;;;;;2.92;2.00;;;;;;;;;;5054006;28;20289;-86
2022/11/23 11:13:24;;;;;;;2.13;1.67;;;;;;;;;;5055270;28;20317;-87
2022/11/23 11:15:54;;;;;;;2.00;1.63;;;;;;;;;;5054779;28;20275;-86
2022/11/23 11:18:24;;;;;;;12.68;1.90;;;;;;;;;;5054236;28;20186;-85
2022/11/23 11:20:58;;;;;;;2.03;1.63;;;;;;;;;;5053966;28;20237;-85
2022/11/23 11:23:26;;;;;;;6.47;1.92;;;;;;;;;;5054098;28;20272;-87
2022/11/23 11:26:10;;;;;;;4.03;1.80;;;;;;;;;;5054832;28;20202;-85
2022/11/23 11:28:40;;;;;;;5.50;1.83;;;;;;;;;;5054093;28;20753;-85
2022/11/23 11:31:25;;;;;;;2.42;1.58;;;;;;;;;;5053682;28;20219;-88
2022/11/23 11:33:59;;;;;;;3.50;1.92;;;;;;;;;;5054154;28;20635;-85
2022/11/23 11:36:30;;;;;;;2.63;1.67;;;;;;;;;;5054332;28;20644;-87
2022/11/23 11:38:58;;;;;;;3.20;1.85;;;;;;;;;;5053374;28;20236;-85
2022/11/23 11:41:28;;;;;;;4.00;1.77;;;;;;;;;;5056214;28;20240;-88
2022/11/23 11:44:00;;;;;;;3.90;2.47;;;;;;;;;;5053604;28;20673;-85
2022/11/23 11:46:31;;;;;;;3.95;2.00;;;;;;;;;;5053581;28;20281;-86
2022/11/23 11:49:05;;;;;;;2.10;1.60;;;;;;;;;;5053760;28;20249;-85
2022/11/23 11:51:37;;;;;;;4.60;1.98;;;;;;;;;;5053772;28;20684;-87
2022/11/23 11:54:13;;;;;;;4.25;1.83;;;;;;;;;;5063418;28;20211;-85
2022/11/23 11:56:45;;;;;;;6.93;2.00;;;;;;;;;;5073710;28;20268;-86
2022/11/23 11:59:18;;;;;;;5.03;1.80;;;;;;;;;;5074070;28;20684;-85
2022/11/23 12:01:55;;;;;;;2.00;1.33;;;;;;;;;;5073763;28;20221;-85
2022/11/23 12:04:26;;;;;;;2.03;1.50;;;;;;;;;;5076889;28;20641;-85
2022/11/23 12:06:57;;;;;;;1.65;1.38;;;;;;;;;;5077699;28;20236;-86
2022/11/23 12:09:29;;;;;;;2.78;1.40;;;;;;;;;;5077410;28;20693;-85
2022/11/23 12:11:58;;;;;;;1.40;1.30;;;;;;;;;;5077493;28;20204;-86
2022/11/23 12:14:26;;;;;;;8.68;1.90;;;;;;;;;;5077621;28;20295;-85
2022/11/23 12:17:00;;;;;;;2.80;1.10;;;;;;;;;;5077046;28;20236;-84
2022/11/23 12:19:32;;;;;;;3.47;1.70;;;;;;;;;;5077074;28;20624;-85
2022/11/23 12:22:33;;;;;;;2.33;1.52;;;;;;;;;;5077039;28;20272;-84
2022/11/23 12:25:15;;;;;;;4.53;1.85;;;;;;;;;;5076856;28;20292;-86
2022/11/23 12:27:54;;;;;;;2.63;1.23;;;;;;;;;;5077193;28;20244;-86
2022/11/23 12:30:25;;;;;;;1.83;1.42;;;;;;;;;;5076447;28;20248;-85
2022/11/23 12:33:53;;;;;;;1.65;1.05;;;;;;;;;;5076821;28;20522;-86
2022/11/23 12:36:41;;;;;;;2.25;1.60;;;;;;;;;;4998810;28;20230;-85
2022/11/23 12:39:22;;;;;;;2.58;1.48;;;;;;;;;;5079299;28;20256;-84
2022/11/23 12:41:56;;;;;;;1.85;1.40;;;;;;;;;;5081526;28;20612;-85
2022/11/23 12:44:50;;;;;;;3.85;1.60;;;;;;;;;;5082252;28;20339;-84
2022/11/23 12:47:28;;;;;;;1.98;1.33;;;;;;;;;;5081867;28;20208;-84
2022/11/23 12:50:02;;;;;;;2.67;2.10;;;;;;;;;;5082917;28;20216;-83
2022/11/23 12:52:42;;;;;;;4.55;1.75;;;;;;;;;;5081445;28;20223;-86
2022/11/23 12:55:19;;;;;;;4.45;1.48;;;;;;;;;;5082625;28;20653;-86
2022/11/23 12:57:52;;;;;;;3.17;1.30;;;;;;;;;;5081094;28;20212;-86
2022/11/23 13:00:22;;;;;;;1.95;1.30;;;;;;;;;;5080968;28;20308;-86
2022/11/23 13:03:27;;;;;;;2.60;1.45;;;;;;;;;;5082324;28;20279;-87
2022/11/23 13:06:49;;;;;;;6.35;2.08;;;;;;;;;;5080708;28;20212;-86
2022/11/23 13:09:55;;;;;;;3.50;1.60;;;;;;;;;;4998044;28;20423;-87
2022/11/23 13:12:55;;;;;;;1.70;1.45;;;;;;;;;;5058178;28;20197;-84
2022/11/23 13:15:52;;;;;;;6.03;1.98;;;;;;;;;;5068428;28;20193;-86
2022/11/23 13:18:36;;;;;;;4.53;2.63;;;;;;;;;;5061582;28;20269;-84
2022/11/23 13:21:18;;;;;;;6.65;1.73;;;;;;;;;;5063556;28;20209;-85
2022/11/23 13:23:45;;;;;;;6.07;2.00;;;;;;;;;;5065860;28;20217;-84
2022/11/23 13:26:15;;;;;;;1.60;1.50;;;;;;;;;;5080595;28;20549;-87
2022/11/23 13:28:43;;;;;;;2.25;1.40;;;;;;;;;;5079574;28;20331;-86
2022/11/23 13:31:29;;;;;;;2.05;1.60;;;;;;;;;;5079896;28;20292;-87
2022/11/23 13:33:59;;;;;;;2.63;1.50;;;;;;;;;;5080656;28;20617;-86
2022/11/23 13:36:43;;;;;;;4.80;2.65;;;;;;;;;;5080300;28;20204;-84
2022/11/23 13:40:06;;;;;;;2.88;1.77;;;;;;;;;;5080261;28;20323;-87
2022/11/23 13:42:35;;;;;;;2.00;1.35;;;;;;;;;;5057403;28;20260;-87
2022/11/23 13:45:29;;;;;;;2.33;1.65;;;;;;;;;;5078995;28;20223;-87
2022/11/23 13:48:15;;;;;;;2.38;1.35;;;;;;;;;;5080065;28;20686;-86
2022/11/23 13:50:59;;;;;;;3.30;1.40;;;;;;;;;;5078958;28;20200;-87
2022/11/23 13:53:30;;;;;;;4.00;1.30;;;;;;;;;;5078857;28;20189;-86
2022/11/23 13:56:00;;;;;;;4.70;1.77;;;;;;;;;;5079163;28;20216;-87
2022/11/23 13:58:52;;;;;;;3.50;1.67;;;;;;;;;;5080288;28;20691;-85
2022/11/23 14:02:12;;;;;;;3.83;1.50;;;;;;;;;;5073065;28;20201;-83
2022/11/23 14:04:42;;;;;;;3.38;1.33;;;;;;;;;;5069693;28;20288;-86
2022/11/23 14:07:16;;;;;;;1.98;1.27;;;;;;;;;;5081355;28;20693;-85
2022/11/23 14:09:48;;;;;;;4.28;2.15;;;;;;;;;;5081273;28;20252;-85
2022/11/23 14:12:25;;;;;;;1.80;1.45;;;;;;;;;;5080831;28;20190;-85
2022/11/23 14:14:58;;;;;;;2.28;1.25;;;;;;;;;;5080370;28;20685;-84
2022/11/23 14:18:05;;;;;;;1.58;1.48;;;;;;;;;;5079509;28;20831;-85
2022/11/23 14:21:02;;;;;;;2.50;1.27;;;;;;;;;;5070465;28;20225;-85
2022/11/23 14:24:09;;;;;;;3.30;1.40;;;;;;;;;;5060700;28;20251;-86
2022/11/23 14:26:49;;;;;;;3.05;1.48;;;;;;;;;;5058942;28;20217;-86
2022/11/23 14:29:36;;;;;;;1.38;1.10;;;;;;;;;;5059746;28;20608;-86
2022/11/23 14:32:27;;;;;;;2.83;1.20;;;;;;;;;;5060211;28;20216;-87
2022/11/23 14:35:13;;;;;;;2.80;1.30;;;;;;;;;;5059054;28;20703;-86
2022/11/23 14:38:01;;;;;;;3.22;1.60;;;;;;;;;;5060500;28;20686;-85
2022/11/23 14:40:33;;;;;;;4.05;1.48;;;;;;;;;;5059366;28;20289;-85
2022/11/23 14:43:01;;;;;;;1.67;1.20;;;;;;;;;;5078679;28;20236;-86
2022/11/23 14:45:31;;;;;;;1.70;1.30;;;;;;;;;;5078449;28;20201;-84
2022/11/23 14:48:14;;;;;;;2.35;1.30;;;;;;;;;;5077118;28;20201;-86
2022/11/23 14:50:41;;;;;;;3.20;2.63;;;;;;;;;;5077083;28;20204;-85
2022/11/23 14:53:12;;;;;;;5.35;1.98;;;;;;;;;;5077773;28;20247;-87
2022/11/23 14:55:40;;;;;;;1.17;1.00;;;;;;;;;;5076803;28;20216;-85
2022/11/23 14:58:12;;;;;;;3.42;1.50;;;;;;;;;;5076981;28;20594;-86
2022/11/23 15:00:42;;;;;;;2.58;1.35;;;;;;;;;;5078382;28;20601;-87
2022/11/23 15:03:15;;;;;;;2.05;1.35;;;;;;;;;;5077287;28;20185;-87
2022/11/23 15:05:44;;;;;;;3.58;3.00;;;;;;;;;;5076733;28;20189;-88
2022/11/23 15:08:18;;;;;;;4.00;1.27;;;;;;;;;;5077506;28;20680;-87
2022/11/23 15:10:49;;;;;;;3.70;1.85;;;;;;;;;;5078893;28;20200;-86
2022/11/23 15:13:22;;;;;;;1.83;1.30;;;;;;;;;;5079538;28;20227;-87
2022/11/23 15:15:52;;;;;;;3.13;1.33;;;;;;;;;;5078383;28;20242;-87
2022/11/23 15:18:37;;;;;;;3.17;1.30;;;;;;;;;;5077734;28;20197;-86
2022/11/23 15:21:13;;;;;;;2.03;1.10;;;;;;;;;;5077784;28;20672;-86
2022/11/23 15:23:44;;;;;;;1.40;1.08;;;;;;;;;;5078422;28;20287;-87
2022/11/23 15:26:15;;;;;;;2.15;1.05;;;;;;;;;;5078612;28;20231;-86
2022/11/23 15:28:43;;;;;;;4.93;1.63;;;;;;;;;;5078352;28;20221;-87
2022/11/23 15:31:27;;;;;;;2.28;1.30;;;;;;;;;;5077430;28;20237;-85
2022/11/23 15:33:58;;;;;;;3.50;1.83;;;;;;;;;;5078048;28;20190;-87
2022/11/23 15:36:28;;;;;;;3.65;1.73;;;;;;;;;;5077044;28;20353;-87
2022/11/23 15:38:58;;;;;;;3.55;2.30;;;;;;;;;;5090326;22;20312;-87
2022/11/23 15:41:27;;;;;;;2.35;1.50;;;;;;;;;;5066746;28;20670;-87